sensor_id;sensor_type;location;lat;lon;timestamp;temperature;humidity
44190;DHT22;29856;52.144;5.430;2022-10-16T00:01:31;14.10;99.90
44190;DHT22;29856;52.144;5.430;2022-10-16T00:03:59;14.00;99.90
44190;DHT22;29856;52.144;5.430;2022-10-16T00:06:25;14.00;99.90
44190;DHT22;29856;52.144;5.430;2022-10-16T00:08:51;14.10;99.90
44190;DHT22;29856;52.144;5.430;2022-10-16T00:11:19;14.10;99.90
44190;DHT22;29856;52.144;5.430;2022-10-16T00:13:47;14.00;99.90
44190;DHT22;29856;52.144;5.430;2022-10-16T00:16:13;13.90;99.90
44190;DHT22;29856;52.144;5.430;2022-10-16T00:18:40;13.90;99.90
44190;DHT22;29856;52.144;5.430;2022-10-16T00:21:29;13.90;99.90
44190;DHT22;29856;52.144;5.430;2022-10-16T00:23:58;13.90;99.90
44190;DHT22;29856;52.144;5.430;2022-10-16T00:26:23;13.90;99.90
44190;DHT22;29856;52.144;5.430;2022-10-16T00:28:50;13.90;99.90
44190;DHT22;29856;52.144;5.430;2022-10-16T00:31:17;13.90;99.90
44190;DHT22;29856;52.144;5.430;2022-10-16T00:33:43;13.90;99.90
44190;DHT22;29856;52.144;5.430;2022-10-16T00:36:11;13.90;99.90
44190;DHT22;29856;52.144;5.430;2022-10-16T00:38:36;13.90;99.90
44190;DHT22;29856;52.144;5.430;2022-10-16T00:41:02;13.90;99.90
44190;DHT22;29856;52.144;5.430;2022-10-16T00:49:06;13.90;99.90
44190;DHT22;29856;52.144;5.430;2022-10-16T00:51:55;13.90;99.90
44190;DHT22;29856;52.144;5.430;2022-10-16T00:54:26;13.90;99.90
44190;DHT22;29856;52.144;5.430;2022-10-16T00:56:53;14.00;99.90
44190;DHT22;29856;52.144;5.430;2022-10-16T00:59:24;13.90;99.90
44190;DHT22;29856;52.144;5.430;2022-10-16T01:01:50;13.90;99.90
44190;DHT22;29856;52.144;5.430;2022-10-16T01:04:17;14.00;99.90
44190;DHT22;29856;52.144;5.430;2022-10-16T01:06:45;14.00;99.90
44190;DHT22;29856;52.144;5.430;2022-10-16T01:09:17;14.00;99.90
44190;DHT22;29856;52.144;5.430;2022-10-16T01:12:05;13.90;99.90
44190;DHT22;29856;52.144;5.430;2022-10-16T01:21:02;14.00;99.90
44190;DHT22;29856;52.144;5.430;2022-10-16T01:23:58;14.00;99.90
44190;DHT22;29856;52.144;5.430;2022-10-16T01:31:46;14.00;99.90
44190;DHT22;29856;52.144;5.430;2022-10-16T01:34:19;14.00;99.90
44190;DHT22;29856;52.144;5.430;2022-10-16T01:36:51;14.00;99.90
44190;DHT22;29856;52.144;5.430;2022-10-16T01:39:22;14.10;99.90
44190;DHT22;29856;52.144;5.430;2022-10-16T01:41:55;14.10;99.90
44190;DHT22;29856;52.144;5.430;2022-10-16T01:44:30;14.10;99.90
44190;DHT22;29856;52.144;5.430;2022-10-16T01:46:56;14.10;99.90
44190;DHT22;29856;52.144;5.430;2022-10-16T01:49:25;14.10;99.90
44190;DHT22;29856;52.144;5.430;2022-10-16T01:51:54;14.10;99.90
44190;DHT22;29856;52.144;5.430;2022-10-16T01:54:22;14.10;99.90
44190;DHT22;29856;52.144;5.430;2022-10-16T01:56:51;14.20;99.90
44190;DHT22;29856;52.144;5.430;2022-10-16T01:59:19;14.20;99.90
44190;DHT22;29856;52.144;5.430;2022-10-16T02:01:49;14.20;99.90
44190;DHT22;29856;52.144;5.430;2022-10-16T02:06:51;14.20;99.90
44190;DHT22;29856;52.144;5.430;2022-10-16T02:09:17;14.20;99.90
44190;DHT22;29856;52.144;5.430;2022-10-16T02:11:44;14.20;99.90
44190;DHT22;29856;52.144;5.430;2022-10-16T02:14:09;14.20;99.90
44190;DHT22;29856;52.144;5.430;2022-10-16T02:16:38;14.20;99.90
44190;DHT22;29856;52.144;5.430;2022-10-16T02:19:05;14.20;99.90
44190;DHT22;29856;52.144;5.430;2022-10-16T02:21:43;14.20;99.90
44190;DHT22;29856;52.144;5.430;2022-10-16T02:24:28;14.20;99.90
44190;DHT22;29856;52.144;5.430;2022-10-16T02:26:58;14.20;99.90
44190;DHT22;29856;52.144;5.430;2022-10-16T02:29:27;14.20;99.90
44190;DHT22;29856;52.144;5.430;2022-10-16T02:31:57;14.20;99.90
44190;DHT22;29856;52.144;5.430;2022-10-16T02:34:24;14.10;99.90
44190;DHT22;29856;52.144;5.430;2022-10-16T02:36:51;14.10;99.90
44190;DHT22;29856;52.144;5.430;2022-10-16T02:39:18;14.10;99.90
44190;DHT22;29856;52.144;5.430;2022-10-16T02:41:44;14.10;99.90
44190;DHT22;29856;52.144;5.430;2022-10-16T02:44:10;14.10;99.90
44190;DHT22;29856;52.144;5.430;2022-10-16T02:46:35;14.10;99.90
44190;DHT22;29856;52.144;5.430;2022-10-16T02:49:01;14.00;99.90
44190;DHT22;29856;52.144;5.430;2022-10-16T02:51:26;14.00;99.90
44190;DHT22;29856;52.144;5.430;2022-10-16T02:53:52;14.00;99.90
44190;DHT22;29856;52.144;5.430;2022-10-16T02:56:17;14.00;99.90
44190;DHT22;29856;52.144;5.430;2022-10-16T02:58:43;14.00;99.90
44190;DHT22;29856;52.144;5.430;2022-10-16T03:01:08;14.00;99.90
44190;DHT22;29856;52.144;5.430;2022-10-16T03:03:34;14.00;99.90
44190;DHT22;29856;52.144;5.430;2022-10-16T03:05:59;14.00;99.90
44190;DHT22;29856;52.144;5.430;2022-10-16T03:08:25;14.00;99.90
44190;DHT22;29856;52.144;5.430;2022-10-16T03:10:51;14.00;99.90
44190;DHT22;29856;52.144;5.430;2022-10-16T03:13:16;14.00;99.90
44190;DHT22;29856;52.144;5.430;2022-10-16T03:15:42;14.00;99.90
44190;DHT22;29856;52.144;5.430;2022-10-16T03:18:07;14.00;99.90
44190;DHT22;29856;52.144;5.430;2022-10-16T03:20:33;14.00;99.90
44190;DHT22;29856;52.144;5.430;2022-10-16T03:22:58;14.00;99.90
44190;DHT22;29856;52.144;5.430;2022-10-16T03:25:24;14.00;99.90
44190;DHT22;29856;52.144;5.430;2022-10-16T03:27:49;14.00;99.90
44190;DHT22;29856;52.144;5.430;2022-10-16T03:30:15;13.90;99.90
44190;DHT22;29856;52.144;5.430;2022-10-16T03:32:40;13.90;99.90
44190;DHT22;29856;52.144;5.430;2022-10-16T03:35:06;13.90;99.90
44190;DHT22;29856;52.144;5.430;2022-10-16T03:37:31;13.90;99.90
44190;DHT22;29856;52.144;5.430;2022-10-16T03:39:57;13.90;99.90
44190;DHT22;29856;52.144;5.430;2022-10-16T03:42:22;13.90;99.90
44190;DHT22;29856;52.144;5.430;2022-10-16T03:44:48;13.90;99.90
44190;DHT22;29856;52.144;5.430;2022-10-16T03:47:13;13.90;99.90
44190;DHT22;29856;52.144;5.430;2022-10-16T03:49:39;13.90;99.90
44190;DHT22;29856;52.144;5.430;2022-10-16T03:52:04;13.90;99.90
44190;DHT22;29856;52.144;5.430;2022-10-16T03:54:29;13.80;99.90
44190;DHT22;29856;52.144;5.430;2022-10-16T03:56:55;13.80;99.90
44190;DHT22;29856;52.144;5.430;2022-10-16T03:59:20;13.80;99.90
44190;DHT22;29856;52.144;5.430;2022-10-16T04:01:46;13.80;99.90
44190;DHT22;29856;52.144;5.430;2022-10-16T04:04:11;13.80;99.90
44190;DHT22;29856;52.144;5.430;2022-10-16T04:06:37;13.80;99.90
44190;DHT22;29856;52.144;5.430;2022-10-16T04:09:02;13.70;99.90
44190;DHT22;29856;52.144;5.430;2022-10-16T04:11:28;13.70;99.90
44190;DHT22;29856;52.144;5.430;2022-10-16T04:13:53;13.70;99.90
44190;DHT22;29856;52.144;5.430;2022-10-16T04:16:19;13.70;99.90
44190;DHT22;29856;52.144;5.430;2022-10-16T04:18:44;13.70;99.90
44190;DHT22;29856;52.144;5.430;2022-10-16T04:21:09;13.70;99.90
44190;DHT22;29856;52.144;5.430;2022-10-16T04:23:35;13.70;99.90
44190;DHT22;29856;52.144;5.430;2022-10-16T04:26:00;13.70;99.90
44190;DHT22;29856;52.144;5.430;2022-10-16T04:28:26;13.70;99.90
44190;DHT22;29856;52.144;5.430;2022-10-16T04:30:51;13.70;99.90
44190;DHT22;29856;52.144;5.430;2022-10-16T04:33:17;13.60;99.90
44190;DHT22;29856;52.144;5.430;2022-10-16T04:35:42;13.60;99.90
44190;DHT22;29856;52.144;5.430;2022-10-16T04:38:08;13.60;99.90
44190;DHT22;29856;52.144;5.430;2022-10-16T04:40:33;13.60;99.90
44190;DHT22;29856;52.144;5.430;2022-10-16T04:42:59;13.60;99.90
44190;DHT22;29856;52.144;5.430;2022-10-16T04:45:25;13.60;99.90
44190;DHT22;29856;52.144;5.430;2022-10-16T04:47:50;13.70;99.90
44190;DHT22;29856;52.144;5.430;2022-10-16T04:50:16;13.60;99.90
44190;DHT22;29856;52.144;5.430;2022-10-16T04:52:41;13.60;99.90
44190;DHT22;29856;52.144;5.430;2022-10-16T04:55:07;13.60;99.90
44190;DHT22;29856;52.144;5.430;2022-10-16T04:57:33;13.60;99.90
44190;DHT22;29856;52.144;5.430;2022-10-16T04:59:58;13.60;99.90
44190;DHT22;29856;52.144;5.430;2022-10-16T05:02:24;13.60;99.90
44190;DHT22;29856;52.144;5.430;2022-10-16T05:04:50;13.60;99.90
44190;DHT22;29856;52.144;5.430;2022-10-16T05:07:15;13.60;99.90
44190;DHT22;29856;52.144;5.430;2022-10-16T05:09:41;13.60;99.90
44190;DHT22;29856;52.144;5.430;2022-10-16T05:12:06;13.60;99.90
44190;DHT22;29856;52.144;5.430;2022-10-16T05:14:31;13.60;99.90
44190;DHT22;29856;52.144;5.430;2022-10-16T05:16:57;13.60;99.90
44190;DHT22;29856;52.144;5.430;2022-10-16T05:19:22;13.50;99.90
44190;DHT22;29856;52.144;5.430;2022-10-16T05:21:48;13.50;99.90
44190;DHT22;29856;52.144;5.430;2022-10-16T05:24:13;13.50;99.90
44190;DHT22;29856;52.144;5.430;2022-10-16T05:26:39;13.50;99.90
44190;DHT22;29856;52.144;5.430;2022-10-16T05:29:04;13.50;99.90
44190;DHT22;29856;52.144;5.430;2022-10-16T05:31:30;13.50;99.90
44190;DHT22;29856;52.144;5.430;2022-10-16T05:33:59;13.40;99.90
44190;DHT22;29856;52.144;5.430;2022-10-16T05:36:24;13.40;99.90
44190;DHT22;29856;52.144;5.430;2022-10-16T05:38:50;13.40;99.90
44190;DHT22;29856;52.144;5.430;2022-10-16T05:41:16;13.40;99.90
44190;DHT22;29856;52.144;5.430;2022-10-16T05:43:42;13.40;99.90
44190;DHT22;29856;52.144;5.430;2022-10-16T05:46:07;13.40;99.90
44190;DHT22;29856;52.144;5.430;2022-10-16T05:48:32;13.40;99.90
44190;DHT22;29856;52.144;5.430;2022-10-16T05:50:59;13.50;99.90
44190;DHT22;29856;52.144;5.430;2022-10-16T05:53:25;13.40;99.90
44190;DHT22;29856;52.144;5.430;2022-10-16T05:55:52;13.50;99.90
44190;DHT22;29856;52.144;5.430;2022-10-16T05:58:18;13.50;99.90
44190;DHT22;29856;52.144;5.430;2022-10-16T06:00:43;13.50;99.90
44190;DHT22;29856;52.144;5.430;2022-10-16T06:03:09;13.60;99.90
44190;DHT22;29856;52.144;5.430;2022-10-16T06:05:34;13.50;99.90
44190;DHT22;29856;52.144;5.430;2022-10-16T06:08:00;13.60;99.90
44190;DHT22;29856;52.144;5.430;2022-10-16T06:10:25;13.60;99.90
44190;DHT22;29856;52.144;5.430;2022-10-16T06:12:50;13.60;99.90
44190;DHT22;29856;52.144;5.430;2022-10-16T06:15:16;13.60;99.90
44190;DHT22;29856;52.144;5.430;2022-10-16T06:17:41;13.60;99.90
44190;DHT22;29856;52.144;5.430;2022-10-16T06:20:07;13.70;99.90
44190;DHT22;29856;52.144;5.430;2022-10-16T06:22:32;13.70;99.90
44190;DHT22;29856;52.144;5.430;2022-10-16T06:24:58;13.70;99.90
44190;DHT22;29856;52.144;5.430;2022-10-16T06:27:23;13.70;99.90
44190;DHT22;29856;52.144;5.430;2022-10-16T06:29:49;13.70;99.90
44190;DHT22;29856;52.144;5.430;2022-10-16T06:32:14;13.80;99.90
44190;DHT22;29856;52.144;5.430;2022-10-16T06:34:40;13.80;99.90
44190;DHT22;29856;52.144;5.430;2022-10-16T06:37:05;13.80;99.90
44190;DHT22;29856;52.144;5.430;2022-10-16T06:39:30;13.80;99.90
44190;DHT22;29856;52.144;5.430;2022-10-16T06:41:56;13.80;99.90
44190;DHT22;29856;52.144;5.430;2022-10-16T06:44:21;13.80;99.90
44190;DHT22;29856;52.144;5.430;2022-10-16T06:46:47;13.80;99.90
44190;DHT22;29856;52.144;5.430;2022-10-16T06:49:12;13.80;99.90
44190;DHT22;29856;52.144;5.430;2022-10-16T06:51:38;13.80;99.90
44190;DHT22;29856;52.144;5.430;2022-10-16T06:54:03;13.80;99.90
44190;DHT22;29856;52.144;5.430;2022-10-16T06:56:29;13.80;99.90
44190;DHT22;29856;52.144;5.430;2022-10-16T06:58:54;13.80;99.90
44190;DHT22;29856;52.144;5.430;2022-10-16T07:01:22;13.80;99.90
44190;DHT22;29856;52.144;5.430;2022-10-16T07:03:48;13.80;99.90
44190;DHT22;29856;52.144;5.430;2022-10-16T07:06:18;13.80;99.90
44190;DHT22;29856;52.144;5.430;2022-10-16T07:08:45;13.80;99.90
44190;DHT22;29856;52.144;5.430;2022-10-16T07:11:16;13.70;99.90
44190;DHT22;29856;52.144;5.430;2022-10-16T07:13:43;13.70;99.90
44190;DHT22;29856;52.144;5.430;2022-10-16T07:16:11;13.80;99.90
44190;DHT22;29856;52.144;5.430;2022-10-16T07:18:37;13.80;99.90
44190;DHT22;29856;52.144;5.430;2022-10-16T07:21:09;13.80;99.90
44190;DHT22;29856;52.144;5.430;2022-10-16T07:23:36;13.90;99.90
44190;DHT22;29856;52.144;5.430;2022-10-16T07:26:01;13.90;99.90
44190;DHT22;29856;52.144;5.430;2022-10-16T07:28:27;13.90;99.90
44190;DHT22;29856;52.144;5.430;2022-10-16T07:30:53;14.00;99.90
44190;DHT22;29856;52.144;5.430;2022-10-16T07:33:18;14.00;99.90
44190;DHT22;29856;52.144;5.430;2022-10-16T07:35:51;14.00;99.90
44190;DHT22;29856;52.144;5.430;2022-10-16T07:38:17;14.10;99.90
44190;DHT22;29856;52.144;5.430;2022-10-16T07:40:43;14.10;99.90
44190;DHT22;29856;52.144;5.430;2022-10-16T07:43:09;14.10;99.90
44190;DHT22;29856;52.144;5.430;2022-10-16T07:45:34;14.10;99.90
44190;DHT22;29856;52.144;5.430;2022-10-16T07:47:59;14.10;99.90
44190;DHT22;29856;52.144;5.430;2022-10-16T07:50:25;14.10;99.90
44190;DHT22;29856;52.144;5.430;2022-10-16T07:52:50;14.10;99.90
44190;DHT22;29856;52.144;5.430;2022-10-16T07:55:16;14.10;99.90
44190;DHT22;29856;52.144;5.430;2022-10-16T07:57:42;14.20;99.90
44190;DHT22;29856;52.144;5.430;2022-10-16T08:00:08;14.20;99.90
44190;DHT22;29856;52.144;5.430;2022-10-16T08:02:33;14.20;99.90
44190;DHT22;29856;52.144;5.430;2022-10-16T08:04:59;14.30;99.90
44190;DHT22;29856;52.144;5.430;2022-10-16T08:07:24;14.30;99.90
44190;DHT22;29856;52.144;5.430;2022-10-16T08:09:50;14.30;99.90
44190;DHT22;29856;52.144;5.430;2022-10-16T08:12:15;14.30;99.90
44190;DHT22;29856;52.144;5.430;2022-10-16T08:14:41;14.40;99.90
44190;DHT22;29856;52.144;5.430;2022-10-16T08:17:06;14.50;99.90
44190;DHT22;29856;52.144;5.430;2022-10-16T08:19:31;14.50;99.90
44190;DHT22;29856;52.144;5.430;2022-10-16T08:21:57;14.60;99.90
44190;DHT22;29856;52.144;5.430;2022-10-16T08:24:22;14.60;99.90
44190;DHT22;29856;52.144;5.430;2022-10-16T08:26:48;14.60;99.90
44190;DHT22;29856;52.144;5.430;2022-10-16T08:29:14;14.70;99.90
44190;DHT22;29856;52.144;5.430;2022-10-16T08:31:39;14.70;99.90
44190;DHT22;29856;52.144;5.430;2022-10-16T08:34:05;14.70;99.90
44190;DHT22;29856;52.144;5.430;2022-10-16T08:36:30;14.80;99.90
44190;DHT22;29856;52.144;5.430;2022-10-16T08:38:55;14.90;99.90
44190;DHT22;29856;52.144;5.430;2022-10-16T08:41:51;15.00;99.90
44190;DHT22;29856;52.144;5.430;2022-10-16T08:47:26;15.10;99.90
44190;DHT22;29856;52.144;5.430;2022-10-16T08:50:00;15.10;99.90
44190;DHT22;29856;52.144;5.430;2022-10-16T08:52:30;15.20;99.90
44190;DHT22;29856;52.144;5.430;2022-10-16T08:54:57;15.20;99.90
44190;DHT22;29856;52.144;5.430;2022-10-16T08:57:25;15.30;99.90
44190;DHT22;29856;52.144;5.430;2022-10-16T08:59:51;15.40;99.90
44190;DHT22;29856;52.144;5.430;2022-10-16T09:02:37;15.40;99.90
44190;DHT22;29856;52.144;5.430;2022-10-16T09:10:52;15.70;99.90
44190;DHT22;29856;52.144;5.430;2022-10-16T09:13:26;15.80;99.90
44190;DHT22;29856;52.144;5.430;2022-10-16T09:18:51;15.90;99.90
44190;DHT22;29856;52.144;5.430;2022-10-16T09:21:24;16.00;99.90
44190;DHT22;29856;52.144;5.430;2022-10-16T09:23:51;16.10;99.90
44190;DHT22;29856;52.144;5.430;2022-10-16T09:26:17;16.10;99.90
44190;DHT22;29856;52.144;5.430;2022-10-16T09:28:43;16.20;99.90
44190;DHT22;29856;52.144;5.430;2022-10-16T09:31:27;16.30;99.90
44190;DHT22;29856;52.144;5.430;2022-10-16T09:33:59;16.50;99.90
44190;DHT22;29856;52.144;5.430;2022-10-16T09:36:27;16.60;99.90
44190;DHT22;29856;52.144;5.430;2022-10-16T09:39:05;16.60;99.90
44190;DHT22;29856;52.144;5.430;2022-10-16T09:41:43;16.70;99.90
44190;DHT22;29856;52.144;5.430;2022-10-16T09:44:28;16.80;99.90
44190;DHT22;29856;52.144;5.430;2022-10-16T09:47:05;16.90;99.90
44190;DHT22;29856;52.144;5.430;2022-10-16T09:49:37;17.00;99.90
44190;DHT22;29856;52.144;5.430;2022-10-16T09:52:11;17.10;99.90
44190;DHT22;29856;52.144;5.430;2022-10-16T09:54:37;17.10;99.90
44190;DHT22;29856;52.144;5.430;2022-10-16T09:57:07;17.20;99.90
44190;DHT22;29856;52.144;5.430;2022-10-16T09:59:32;17.40;99.90
44190;DHT22;29856;52.144;5.430;2022-10-16T10:02:01;17.50;99.90
44190;DHT22;29856;52.144;5.430;2022-10-16T10:04:38;17.50;99.90
44190;DHT22;29856;52.144;5.430;2022-10-16T10:07:04;17.50;99.90
44190;DHT22;29856;52.144;5.430;2022-10-16T10:09:38;17.60;99.90
44190;DHT22;29856;52.144;5.430;2022-10-16T10:12:05;17.70;99.90
44190;DHT22;29856;52.144;5.430;2022-10-16T10:14:43;17.70;99.90
44190;DHT22;29856;52.144;5.430;2022-10-16T10:17:19;17.70;99.90
44190;DHT22;29856;52.144;5.430;2022-10-16T10:22:26;17.60;99.90
44190;DHT22;29856;52.144;5.430;2022-10-16T10:24:56;17.70;99.90
44190;DHT22;29856;52.144;5.430;2022-10-16T10:27:27;17.60;99.90
44190;DHT22;29856;52.144;5.430;2022-10-16T10:30:07;17.80;99.90
44190;DHT22;29856;52.144;5.430;2022-10-16T10:33:41;17.80;99.90
44190;DHT22;29856;52.144;5.430;2022-10-16T10:44:06;18.10;99.90
44190;DHT22;29856;52.144;5.430;2022-10-16T10:46:35;18.00;99.90
44190;DHT22;29856;52.144;5.430;2022-10-16T11:00:21;18.40;99.90
44190;DHT22;29856;52.144;5.430;2022-10-16T11:05:56;18.50;99.90
44190;DHT22;29856;52.144;5.430;2022-10-16T11:08:34;18.60;99.90
44190;DHT22;29856;52.144;5.430;2022-10-16T11:11:14;18.70;99.90
44190;DHT22;29856;52.144;5.430;2022-10-16T11:13:46;18.90;99.90
44190;DHT22;29856;52.144;5.430;2022-10-16T11:16:21;19.00;99.90
44190;DHT22;29856;52.144;5.430;2022-10-16T11:22:04;19.00;99.90
44190;DHT22;29856;52.144;5.430;2022-10-16T11:27:09;18.90;99.90
44190;DHT22;29856;52.144;5.430;2022-10-16T11:29:51;18.70;99.90
44190;DHT22;29856;52.144;5.430;2022-10-16T11:32:24;18.80;99.90
44190;DHT22;29856;52.144;5.430;2022-10-16T11:34:56;18.90;99.90
44190;DHT22;29856;52.144;5.430;2022-10-16T11:37:38;19.00;99.90
44190;DHT22;29856;52.144;5.430;2022-10-16T11:42:59;19.00;99.90
44190;DHT22;29856;52.144;5.430;2022-10-16T11:45:38;18.80;99.90
44190;DHT22;29856;52.144;5.430;2022-10-16T11:48:27;18.70;99.90
44190;DHT22;29856;52.144;5.430;2022-10-16T11:51:29;18.70;99.90
44190;DHT22;29856;52.144;5.430;2022-10-16T11:54:21;18.80;99.90
44190;DHT22;29856;52.144;5.430;2022-10-16T11:56:50;18.80;99.90
44190;DHT22;29856;52.144;5.430;2022-10-16T11:59:42;18.60;99.90
44190;DHT22;29856;52.144;5.430;2022-10-16T12:07:38;18.80;99.90
44190;DHT22;29856;52.144;5.430;2022-10-16T12:10:31;18.70;99.90
44190;DHT22;29856;52.144;5.430;2022-10-16T12:12:57;18.70;99.90
44190;DHT22;29856;52.144;5.430;2022-10-16T12:15:28;18.70;99.90
44190;DHT22;29856;52.144;5.430;2022-10-16T12:17:54;18.60;99.90
44190;DHT22;29856;52.144;5.430;2022-10-16T12:20:23;18.80;99.90
44190;DHT22;29856;52.144;5.430;2022-10-16T12:22:53;18.80;99.90
44190;DHT22;29856;52.144;5.430;2022-10-16T12:25:22;18.90;99.90
44190;DHT22;29856;52.144;5.430;2022-10-16T12:28:05;19.00;99.90
44190;DHT22;29856;52.144;5.430;2022-10-16T12:30:34;19.10;99.90
44190;DHT22;29856;52.144;5.430;2022-10-16T12:33:17;19.10;99.90
44190;DHT22;29856;52.144;5.430;2022-10-16T12:35:45;19.00;99.90
44190;DHT22;29856;52.144;5.430;2022-10-16T12:38:29;19.00;99.90
44190;DHT22;29856;52.144;5.430;2022-10-16T12:41:02;18.90;99.90
44190;DHT22;29856;52.144;5.430;2022-10-16T12:43:43;18.80;99.90
44190;DHT22;29856;52.144;5.430;2022-10-16T12:48:35;18.80;99.90
44190;DHT22;29856;52.144;5.430;2022-10-16T12:53:45;18.90;99.90
44190;DHT22;29856;52.144;5.430;2022-10-16T12:56:27;18.80;99.90
44190;DHT22;29856;52.144;5.430;2022-10-16T12:59:09;18.90;99.90
44190;DHT22;29856;52.144;5.430;2022-10-16T13:01:52;18.90;99.90
44190;DHT22;29856;52.144;5.430;2022-10-16T13:04:53;19.00;99.90
44190;DHT22;29856;52.144;5.430;2022-10-16T13:07:44;19.00;99.90
44190;DHT22;29856;52.144;5.430;2022-10-16T13:10:32;19.10;99.90
44190;DHT22;29856;52.144;5.430;2022-10-16T13:13:05;19.30;99.90
44190;DHT22;29856;52.144;5.430;2022-10-16T13:16:08;19.30;99.90
44190;DHT22;29856;52.144;5.430;2022-10-16T13:21:49;19.50;99.90
44190;DHT22;29856;52.144;5.430;2022-10-16T13:29:36;19.40;99.90
44190;DHT22;29856;52.144;5.430;2022-10-16T13:32:07;19.40;99.90
44190;DHT22;29856;52.144;5.430;2022-10-16T13:34:44;19.50;99.90
44190;DHT22;29856;52.144;5.430;2022-10-16T13:37:21;19.50;99.90
44190;DHT22;29856;52.144;5.430;2022-10-16T13:39:47;19.60;99.90
44190;DHT22;29856;52.144;5.430;2022-10-16T13:42:28;19.60;99.90
44190;DHT22;29856;52.144;5.430;2022-10-16T13:44:55;19.50;99.90
44190;DHT22;29856;52.144;5.430;2022-10-16T13:47:24;19.50;99.90
44190;DHT22;29856;52.144;5.430;2022-10-16T13:50:04;19.50;99.90
44190;DHT22;29856;52.144;5.430;2022-10-16T13:52:29;19.50;99.90
44190;DHT22;29856;52.144;5.430;2022-10-16T13:54:55;19.50;99.90
44190;DHT22;29856;52.144;5.430;2022-10-16T13:57:23;19.60;99.90
44190;DHT22;29856;52.144;5.430;2022-10-16T13:59:48;19.50;99.90
44190;DHT22;29856;52.144;5.430;2022-10-16T14:04:57;19.40;99.90
44190;DHT22;29856;52.144;5.430;2022-10-16T14:07:31;19.40;99.90
44190;DHT22;29856;52.144;5.430;2022-10-16T14:10:05;19.30;99.90
44190;DHT22;29856;52.144;5.430;2022-10-16T14:12:31;19.40;99.90
44190;DHT22;29856;52.144;5.430;2022-10-16T14:14:58;19.40;99.90
44190;DHT22;29856;52.144;5.430;2022-10-16T14:17:33;19.50;99.90
44190;DHT22;29856;52.144;5.430;2022-10-16T14:20:00;19.50;99.90
44190;DHT22;29856;52.144;5.430;2022-10-16T14:22:35;19.50;99.90
44190;DHT22;29856;52.144;5.430;2022-10-16T14:25:15;19.50;99.90
44190;DHT22;29856;52.144;5.430;2022-10-16T14:27:45;19.40;99.90
44190;DHT22;29856;52.144;5.430;2022-10-16T14:30:20;19.40;99.90
44190;DHT22;29856;52.144;5.430;2022-10-16T14:33:01;19.40;99.90
44190;DHT22;29856;52.144;5.430;2022-10-16T14:35:36;19.40;99.90
44190;DHT22;29856;52.144;5.430;2022-10-16T14:38:03;19.40;99.90
44190;DHT22;29856;52.144;5.430;2022-10-16T14:40:32;19.30;99.90
44190;DHT22;29856;52.144;5.430;2022-10-16T14:42:58;19.30;99.90
44190;DHT22;29856;52.144;5.430;2022-10-16T14:45:30;19.30;99.90
44190;DHT22;29856;52.144;5.430;2022-10-16T14:47:58;19.30;99.90
44190;DHT22;29856;52.144;5.430;2022-10-16T14:50:23;19.30;99.90
44190;DHT22;29856;52.144;5.430;2022-10-16T14:52:49;19.30;99.90
44190;DHT22;29856;52.144;5.430;2022-10-16T14:55:15;19.30;99.90
44190;DHT22;29856;52.144;5.430;2022-10-16T14:57:42;19.30;99.90
44190;DHT22;29856;52.144;5.430;2022-10-16T15:00:19;19.30;99.90
44190;DHT22;29856;52.144;5.430;2022-10-16T15:02:45;19.30;99.90
44190;DHT22;29856;52.144;5.430;2022-10-16T15:05:19;19.30;99.90
44190;DHT22;29856;52.144;5.430;2022-10-16T15:07:46;19.30;99.90
44190;DHT22;29856;52.144;5.430;2022-10-16T15:10:13;19.30;99.90
44190;DHT22;29856;52.144;5.430;2022-10-16T15:12:39;19.30;99.90
44190;DHT22;29856;52.144;5.430;2022-10-16T15:15:28;19.20;99.90
44190;DHT22;29856;52.144;5.430;2022-10-16T15:17:56;19.20;99.90
44190;DHT22;29856;52.144;5.430;2022-10-16T15:20:23;19.10;99.90
44190;DHT22;29856;52.144;5.430;2022-10-16T15:22:49;19.10;99.90
44190;DHT22;29856;52.144;5.430;2022-10-16T15:25:31;19.10;99.90
44190;DHT22;29856;52.144;5.430;2022-10-16T15:27:57;19.20;99.90
44190;DHT22;29856;52.144;5.430;2022-10-16T15:30:22;19.10;99.90
44190;DHT22;29856;52.144;5.430;2022-10-16T15:32:48;19.00;99.90
44190;DHT22;29856;52.144;5.430;2022-10-16T15:35:13;19.00;99.90
44190;DHT22;29856;52.144;5.430;2022-10-16T15:37:39;18.90;99.90
44190;DHT22;29856;52.144;5.430;2022-10-16T15:40:05;18.90;99.90
44190;DHT22;29856;52.144;5.430;2022-10-16T15:42:30;18.80;99.90
44190;DHT22;29856;52.144;5.430;2022-10-16T15:44:56;18.80;99.90
44190;DHT22;29856;52.144;5.430;2022-10-16T15:47:21;18.70;99.90
44190;DHT22;29856;52.144;5.430;2022-10-16T15:49:47;18.60;99.90
44190;DHT22;29856;52.144;5.430;2022-10-16T15:52:12;18.40;99.90
44190;DHT22;29856;52.144;5.430;2022-10-16T15:54:38;18.40;99.90
44190;DHT22;29856;52.144;5.430;2022-10-16T15:57:03;18.40;99.90
44190;DHT22;29856;52.144;5.430;2022-10-16T15:59:29;18.30;99.90
44190;DHT22;29856;52.144;5.430;2022-10-16T16:01:54;18.30;99.90
44190;DHT22;29856;52.144;5.430;2022-10-16T16:04:19;18.20;99.90
44190;DHT22;29856;52.144;5.430;2022-10-16T16:06:45;18.10;99.90
44190;DHT22;29856;52.144;5.430;2022-10-16T16:09:11;18.10;99.90
44190;DHT22;29856;52.144;5.430;2022-10-16T16:11:37;18.00;99.90
44190;DHT22;29856;52.144;5.430;2022-10-16T16:14:03;17.90;99.90
44190;DHT22;29856;52.144;5.430;2022-10-16T16:16:28;17.80;99.90
44190;DHT22;29856;52.144;5.430;2022-10-16T16:18:54;17.80;99.90
44190;DHT22;29856;52.144;5.430;2022-10-16T16:21:19;17.70;99.90
44190;DHT22;29856;52.144;5.430;2022-10-16T16:23:44;17.70;99.90
44190;DHT22;29856;52.144;5.430;2022-10-16T16:26:36;17.70;99.90
44190;DHT22;29856;52.144;5.430;2022-10-16T16:29:03;17.70;99.90
44190;DHT22;29856;52.144;5.430;2022-10-16T16:31:30;17.60;99.90
44190;DHT22;29856;52.144;5.430;2022-10-16T16:33:57;17.60;99.90
44190;DHT22;29856;52.144;5.430;2022-10-16T16:36:23;17.40;99.90
44190;DHT22;29856;52.144;5.430;2022-10-16T16:38:49;17.40;99.90
44190;DHT22;29856;52.144;5.430;2022-10-16T16:41:17;17.40;99.90
44190;DHT22;29856;52.144;5.430;2022-10-16T16:43:44;17.30;99.90
44190;DHT22;29856;52.144;5.430;2022-10-16T16:46:10;17.20;99.90
44190;DHT22;29856;52.144;5.430;2022-10-16T16:48:37;17.20;99.90
44190;DHT22;29856;52.144;5.430;2022-10-16T16:51:07;17.20;99.90
44190;DHT22;29856;52.144;5.430;2022-10-16T16:53:34;17.10;99.90
44190;DHT22;29856;52.144;5.430;2022-10-16T16:56:04;17.00;99.90
44190;DHT22;29856;52.144;5.430;2022-10-16T16:58:30;17.00;99.90
44190;DHT22;29856;52.144;5.430;2022-10-16T17:00:57;17.00;99.90
44190;DHT22;29856;52.144;5.430;2022-10-16T17:03:22;16.90;99.90
44190;DHT22;29856;52.144;5.430;2022-10-16T17:06:05;16.90;99.90
44190;DHT22;29856;52.144;5.430;2022-10-16T17:08:32;16.80;99.90
44190;DHT22;29856;52.144;5.430;2022-10-16T17:10:58;16.80;99.90